Portada
METAR-TAF:

METAR-TAF

Aeropuertos :

Malakula, Vanuatu

latitud: 16-27-26S, longitud: 167-49-42E, altitud: 2 m

METAR: falta

Hora: 23:23 (12:23 UTC)

Pronóstico

El informe se hizo hace 2 horas y 23 minutos, a las 10:00 UTC
Pronóstico válido del 02 a las 12 UTC al 03 a las 12 UTC
Viento 10 kt del este-sureste
Visibilidad 10 km o más
Nubes dispersas a una altura de 2000 ft
Probabilidad 30%
entre IN y TE UTC
Visibilidad: 9000 m
Cielo nuboso a una altura de 1800 ft
chaparrones de lluvia

TAF: NVSL 021000Z 0212/0312 12010KT 9999 SCT020 PROB30 INTER 0212/0218 9000 -SHRA BKN018

Observaciones y pronósticos meteorológicos de más de 4000 aeropuertos (mensajes METAR y TAF).

Los puntos amarillos y rojos representan las estaciones disponibles.

Ponga el ratón en el punto deseado para ver el nombre de la estación.

Haga clic para ver las observaciones y los pronósticos meteorológicos.

Para cambiar el mapa : haga clic en los botones verdes con una cruz de color negro para hacer un zoom, en el botón verde con un guión para alejar o en las flechas verdes para mapas adyacentes.


METAR-TAF: